International, Washington
Current Conditions -  °F | °C
As of 7:53 PM on Thursday 18 Dec 2014 (Local Time) from KBFI Reporting Station
Light Rain Light Rain  
Wind Chill: 45°   Ceiling: 5500
Heat Index: 49°   Visibility: 10mi
Dew Point: 43°   Wind: 8mph
Humidity: 80%   Direction: 140°SE
Pressure: 29.73"   Gusts: NA
Location:  47.6024°N, 122.326°W
Report Text: KBFI 190353Z 14007KT 10SM -RA OVC055 09/06 A2973 RMK AO2 RAB10 SLP068 P0009 T00940061
Loading
Personal Weather Stations






























Interactive Weather Map New forecast layout! Learn more

10-Day Weather Forecast

Advertisements
Track Severe Weather on mobile